createdAt,value
2018-07-21T00:00:03.829Z,12.28
2018-07-21T00:02:34.679Z,11.78
2018-07-21T00:05:05.682Z,11.65
2018-07-21T00:07:36.660Z,12.47
2018-07-21T00:10:07.683Z,12.13
2018-07-21T00:12:39.056Z,11.73
2018-07-21T00:15:09.754Z,12.23
2018-07-21T00:17:40.694Z,12.03
2018-07-21T00:20:11.604Z,10.90
2018-07-21T00:22:44.815Z,10.48
2018-07-21T00:25:14.689Z,10.20
2018-07-21T00:27:44.789Z,10.23
2018-07-21T00:30:15.714Z,10.82
2018-07-21T00:32:47.169Z,13.88
2018-07-21T00:35:17.873Z,15.34
2018-07-21T00:37:48.870Z,16.27
2018-07-21T00:40:19.692Z,17.55
2018-07-21T00:42:50.632Z,20.30
2018-07-21T00:45:21.641Z,17.85
2018-07-21T00:47:52.638Z,17.90
2018-07-21T00:50:23.611Z,16.97
2018-07-21T00:52:53.670Z,13.07
2018-07-21T00:55:24.621Z,14.40
2018-07-21T00:57:55.673Z,14.00
2018-07-21T01:00:26.684Z,14.47
2018-07-21T01:02:57.710Z,15.50
2018-07-21T01:05:28.802Z,13.88
2018-07-21T01:08:00.628Z,15.35
2018-07-21T01:10:30.597Z,15.03
2018-07-21T01:13:01.682Z,14.28
2018-07-21T01:15:32.652Z,13.95
2018-07-21T01:18:03.621Z,13.75
2018-07-21T01:20:34.729Z,13.53
2018-07-21T01:23:06.136Z,14.03
2018-07-21T01:25:38.421Z,15.95
2018-07-21T01:28:09.569Z,15.45
2018-07-21T01:30:39.577Z,15.45
2018-07-21T01:33:09.542Z,15.60
2018-07-21T01:35:40.561Z,13.98
2018-07-21T01:38:11.613Z,13.88
2018-07-21T01:40:42.873Z,15.00
2018-07-21T01:43:14.142Z,14.35
2018-07-21T01:45:44.752Z,14.46
2018-07-21T01:48:15.781Z,13.18
2018-07-21T01:50:46.795Z,13.03
2018-07-21T01:53:17.704Z,12.68
2018-07-21T01:55:48.697Z,12.78
2018-07-21T01:58:19.813Z,12.18
2018-07-21T02:00:51.140Z,11.85
2018-07-21T02:03:21.942Z,12.42
2018-07-21T02:05:52.784Z,12.18
2018-07-21T02:08:23.741Z,11.73
2018-07-21T02:10:54.653Z,12.35
2018-07-21T02:13:25.597Z,12.03
2018-07-21T02:15:57.279Z,11.85
2018-07-21T02:18:27.910Z,12.34
2018-07-21T02:20:58.692Z,11.68
2018-07-21T02:23:29.699Z,11.57
2018-07-21T02:26:00.607Z,11.78
2018-07-21T02:28:31.724Z,11.80
2018-07-21T02:31:02.676Z,11.50
2018-07-21T02:33:33.638Z,11.33
2018-07-21T02:36:04.658Z,11.10
2018-07-21T02:38:36.086Z,10.58
2018-07-21T02:41:06.828Z,10.70
2018-07-21T02:43:37.848Z,10.88
2018-07-21T02:46:09.150Z,10.00
2018-07-21T02:48:39.909Z,10.32
2018-07-21T02:51:10.675Z,10.13
2018-07-21T02:53:41.687Z,10.10
2018-07-21T02:56:12.679Z,10.75
2018-07-21T02:58:45.101Z,10.45
2018-07-21T03:01:15.084Z,10.57
2018-07-21T03:03:45.797Z,9.83
2018-07-21T03:06:16.671Z,10.00
2018-07-21T03:08:53.369Z,10.46
2018-07-21T03:11:23.307Z,11.07
2018-07-21T03:13:53.266Z,10.70
2018-07-21T03:16:23.716Z,9.94
2018-07-21T03:18:53.675Z,9.53
2018-07-21T03:21:23.633Z,9.95
2018-07-21T03:23:55.320Z,9.88
2018-07-21T03:26:25.252Z,10.03
2018-07-21T03:28:56.212Z,10.93
2018-07-21T03:31:27.969Z,10.50
2018-07-21T03:33:57.925Z,10.83
2018-07-21T03:36:28.740Z,10.45
2018-07-21T03:38:59.690Z,9.75
2018-07-21T03:41:30.678Z,10.63
2018-07-21T03:44:01.651Z,10.95
2018-07-21T03:46:32.479Z,9.85
2018-07-21T03:49:02.485Z,10.35
2018-07-21T03:51:33.441Z,10.55
2018-07-21T03:54:04.588Z,10.13
2018-07-21T03:56:35.630Z,11.15
2018-07-21T03:59:08.321Z,10.25
2018-07-21T04:01:38.199Z,10.57
2018-07-21T04:04:09.946Z,11.68
2018-07-21T04:06:39.851Z,12.10
2018-07-21T04:09:12.677Z,11.20
2018-07-21T04:11:42.582Z,11.85
2018-07-21T04:14:12.548Z,12.20
2018-07-21T04:16:43.495Z,11.88
2018-07-21T04:19:14.684Z,12.50
2018-07-21T04:21:46.527Z,11.90
2018-07-21T04:24:16.593Z,12.73
2018-07-21T04:26:47.678Z,13.75
2018-07-21T04:29:18.637Z,11.73
2018-07-21T04:31:50.083Z,12.54
2018-07-21T04:34:20.754Z,12.98
2018-07-21T04:36:52.036Z,12.65
2018-07-21T04:39:22.751Z,14.15
2018-07-21T04:41:54.687Z,13.20
2018-07-21T04:44:24.676Z,13.87
2018-07-21T04:46:55.728Z,13.95
2018-07-21T04:49:27.564Z,13.13
2018-07-21T04:51:57.521Z,13.10
2018-07-21T04:54:29.397Z,12.97
2018-07-21T04:56:59.363Z,14.15
2018-07-21T04:59:30.790Z,13.82
2018-07-21T05:02:01.698Z,13.65
2018-07-21T05:04:32.658Z,12.93
2018-07-21T05:07:03.575Z,13.90
2018-07-21T05:09:34.478Z,13.30
2018-07-21T05:12:05.951Z,13.88
2018-07-21T05:14:36.652Z,11.88
2018-07-21T05:17:07.518Z,12.82
2018-07-21T05:19:38.549Z,12.93
2018-07-21T05:22:09.443Z,13.60
2018-07-21T05:24:40.767Z,12.80
2018-07-21T05:27:11.713Z,13.05
2018-07-21T05:29:43.135Z,13.80
2018-07-21T05:32:16.063Z,12.78
2018-07-21T05:34:46.625Z,13.48
2018-07-21T05:37:16.593Z,10.95
2018-07-21T05:39:46.487Z,11.63
2018-07-21T05:42:17.764Z,10.78
2018-07-21T05:44:49.139Z,10.28
2018-07-21T05:47:19.741Z,10.32
2018-07-21T05:49:50.662Z,11.00
2018-07-21T05:52:21.581Z,11.25
2018-07-21T05:54:52.879Z,11.35
2018-07-21T05:57:23.586Z,10.70
2018-07-21T05:59:54.489Z,9.28
2018-07-21T06:02:25.378Z,9.70
2018-07-21T06:04:56.699Z,9.76
2018-07-21T06:07:27.468Z,9.83
2018-07-21T06:09:58.796Z,10.80
2018-07-21T06:12:29.648Z,10.80
2018-07-21T06:15:00.537Z,10.78
2018-07-21T06:17:31.390Z,11.18
2018-07-21T06:20:02.991Z,10.84
2018-07-21T06:22:33.713Z,12.20
2018-07-21T06:25:04.876Z,10.53
2018-07-21T06:27:35.634Z,12.43
2018-07-21T06:30:07.306Z,27.93
2018-07-21T06:32:37.833Z,15.36
2018-07-21T06:35:09.061Z,14.87
2018-07-21T06:37:39.690Z,14.33
2018-07-21T06:40:10.635Z,14.73
2018-07-21T06:42:41.624Z,11.60
2018-07-21T06:45:12.522Z,10.85
2018-07-21T06:47:43.475Z,10.40
2018-07-21T06:50:14.557Z,10.45
2018-07-21T06:52:45.494Z,9.55
2018-07-21T06:55:16.423Z,9.50
2018-07-21T06:57:47.318Z,8.48
2018-07-21T07:00:18.741Z,8.38
2018-07-21T07:02:50.687Z,7.25
2018-07-21T07:05:20.920Z,7.37
2018-07-21T07:07:51.782Z,7.24
2018-07-21T07:10:22.961Z,7.42
2018-07-21T07:12:53.886Z,6.97
2018-07-21T07:15:24.632Z,7.10
2018-07-21T07:17:55.808Z,7.15
2018-07-21T07:20:26.721Z,7.80
2018-07-21T07:23:02.933Z,7.30
2018-07-21T07:25:33.723Z,5.70
2018-07-21T07:28:03.597Z,7.72
2018-07-21T07:30:33.490Z,6.67
2018-07-21T07:33:03.367Z,6.63
2018-07-21T07:35:33.321Z,7.17
2018-07-21T07:38:03.787Z,6.42
2018-07-21T07:40:34.602Z,6.12
2018-07-21T07:43:05.479Z,7.10
2018-07-21T07:45:36.402Z,6.55
2018-07-21T07:48:08.025Z,6.84
2018-07-21T07:50:38.635Z,6.67
2018-07-21T07:53:09.576Z,6.58
2018-07-21T07:55:40.442Z,6.00
2018-07-21T07:58:11.322Z,5.55
2018-07-21T08:00:43.078Z,6.18
2018-07-21T08:03:13.693Z,5.75
2018-07-21T08:05:44.520Z,6.20
2018-07-21T08:08:15.349Z,6.37
2018-07-21T08:10:46.789Z,6.12
2018-07-21T08:13:17.540Z,5.83
2018-07-21T08:15:48.398Z,6.72
2018-07-21T08:18:19.728Z,5.96
2018-07-21T08:20:50.660Z,6.53
2018-07-21T08:23:21.463Z,6.17
2018-07-21T08:25:52.365Z,5.83
2018-07-21T08:28:23.311Z,5.50
2018-07-21T08:30:54.697Z,5.80
2018-07-21T08:33:25.445Z,5.80
2018-07-21T08:35:56.467Z,6.47
2018-07-21T08:38:31.372Z,5.72
2018-07-21T08:41:01.289Z,5.60
2018-07-21T08:43:31.105Z,5.70
2018-07-21T08:46:00.964Z,5.50
2018-07-21T08:48:31.730Z,6.00
2018-07-21T08:51:02.587Z,5.78
2018-07-21T08:53:33.835Z,5.70
2018-07-21T08:56:04.664Z,5.97
2018-07-21T08:58:35.633Z,5.78
2018-07-21T09:01:07.577Z,5.70
2018-07-21T09:03:37.441Z,5.87
2018-07-21T09:06:08.367Z,5.53
2018-07-21T09:08:39.626Z,6.08
2018-07-21T09:11:10.466Z,6.15
2018-07-21T09:13:41.355Z,5.33
2018-07-21T09:16:12.561Z,5.90
2018-07-21T09:18:44.195Z,5.60
2018-07-21T09:21:14.724Z,5.66
2018-07-21T09:23:45.515Z,5.33
2018-07-21T09:26:16.416Z,5.72
2018-07-21T09:28:47.723Z,5.50
2018-07-21T09:31:17.932Z,5.70
2018-07-21T09:33:48.569Z,5.75
2018-07-21T09:36:19.386Z,6.03
2018-07-21T09:47:44.014Z,6.13
2018-07-21T09:50:14.270Z,5.73
2018-07-21T09:52:44.068Z,5.70
2018-07-21T09:55:13.877Z,5.90
2018-07-21T09:57:43.935Z,5.83
2018-07-21T10:00:17.751Z,6.00
2018-07-21T10:02:47.851Z,6.03
2018-07-21T10:05:17.674Z,5.53
2018-07-21T10:07:47.730Z,5.43
2018-07-21T10:10:17.674Z,5.77
2018-07-21T10:12:47.760Z,5.60
2018-07-21T10:15:17.665Z,5.70
2018-07-21T10:17:47.600Z,5.57
2018-07-21T10:20:17.743Z,5.70
2018-07-21T10:22:47.801Z,5.90
2018-07-21T10:25:22.623Z,5.33
2018-07-21T10:27:57.387Z,5.93
2018-07-21T10:30:27.207Z,5.47
2018-07-21T10:32:57.069Z,5.97
2018-07-21T10:35:26.961Z,5.70
2018-07-21T10:37:56.953Z,5.77
2018-07-21T10:40:26.872Z,5.83
2018-07-21T10:42:56.852Z,5.80
2018-07-21T10:45:27.109Z,5.60
2018-07-21T10:47:57.263Z,6.13
2018-07-21T10:50:27.156Z,5.90
2018-07-21T10:52:56.996Z,5.97
2018-07-21T10:55:26.822Z,5.70
2018-07-21T10:57:56.656Z,5.80
2018-07-21T11:00:26.607Z,6.23
2018-07-21T11:02:56.632Z,5.80
2018-07-21T11:05:26.643Z,5.33
2018-07-21T11:07:56.811Z,5.92
2018-07-21T11:10:26.728Z,6.27
2018-07-21T11:13:03.472Z,5.90
2018-07-21T11:15:33.657Z,5.87
2018-07-21T11:18:03.784Z,5.93
2018-07-21T11:20:33.668Z,5.43
2018-07-21T11:23:03.765Z,6.03
2018-07-21T11:25:33.589Z,5.43
2018-07-21T11:28:03.744Z,5.97
2018-07-21T11:30:33.626Z,5.43
2018-07-21T11:33:03.456Z,5.63
2018-07-21T11:35:33.619Z,5.33
2018-07-21T11:38:03.725Z,6.00
2018-07-21T11:40:33.581Z,5.70
2018-07-21T11:43:03.704Z,5.27
2018-07-21T11:45:33.726Z,5.20
2018-07-21T11:48:03.973Z,5.40
2018-07-21T11:50:33.845Z,5.20
2018-07-21T11:53:03.691Z,5.43
2018-07-21T11:55:33.678Z,5.10
2018-07-21T11:58:03.580Z,4.90
2018-07-21T12:00:33.604Z,5.23
2018-07-21T12:03:03.751Z,5.30
2018-07-21T12:05:33.697Z,5.00
2018-07-21T12:08:04.063Z,5.27
2018-07-21T12:10:33.836Z,5.37
2018-07-21T12:13:03.737Z,5.40
2018-07-21T12:15:33.757Z,5.67
2018-07-21T12:18:03.707Z,5.40
2018-07-21T12:20:33.658Z,5.73
2018-07-21T12:23:03.629Z,6.13
2018-07-21T12:25:33.644Z,6.00
2018-07-21T12:28:03.637Z,5.57
2018-07-21T12:30:33.769Z,5.30
2018-07-21T12:33:03.591Z,5.20
2018-07-21T12:35:33.699Z,5.50
2018-07-21T12:38:03.679Z,5.60
2018-07-21T12:40:33.598Z,5.60
2018-07-21T12:43:03.664Z,5.93
2018-07-21T12:45:41.393Z,5.67
2018-07-21T12:48:11.220Z,5.40
2018-07-21T12:50:41.059Z,5.67
2018-07-21T12:53:10.926Z,5.73
2018-07-21T12:55:40.740Z,5.97
2018-07-21T12:58:10.698Z,5.63
2018-07-21T13:00:40.650Z,5.57
2018-07-21T13:03:11.063Z,5.60
2018-07-21T13:05:41.064Z,7.70
2018-07-21T13:08:10.978Z,6.23
2018-07-21T13:10:40.790Z,6.03
2018-07-21T13:13:10.630Z,5.90
2018-07-21T13:15:40.594Z,5.53
2018-07-21T13:18:11.426Z,5.93
2018-07-21T13:20:41.318Z,6.30
2018-07-21T13:23:11.252Z,6.17
2018-07-21T13:25:41.157Z,5.97
2018-07-21T13:28:11.139Z,5.53
2018-07-21T13:30:41.466Z,5.83
2018-07-21T13:33:11.754Z,5.30
2018-07-21T13:35:41.654Z,5.17
2018-07-21T13:38:11.617Z,5.70
2018-07-21T13:40:42.125Z,6.13
2018-07-21T13:43:11.949Z,6.00
2018-07-21T13:45:42.024Z,5.55
2018-07-21T13:48:12.382Z,5.92
2018-07-21T13:50:42.557Z,6.08
2018-07-21T13:53:12.704Z,6.08
2018-07-21T13:55:42.594Z,5.65
2018-07-21T13:58:13.041Z,5.28
2018-07-21T14:00:43.044Z,6.03
2018-07-21T14:03:13.540Z,6.05
2018-07-21T14:05:43.344Z,5.90
2018-07-21T14:08:13.177Z,5.97
2018-07-21T14:10:43.299Z,6.00
2018-07-21T14:13:13.295Z,5.47
2018-07-21T14:15:43.283Z,5.30
2018-07-21T14:18:13.175Z,6.30
2018-07-21T14:20:43.073Z,5.96
2018-07-21T14:23:13.486Z,5.62
2018-07-21T14:25:43.310Z,5.23
2018-07-21T14:28:14.093Z,5.70
2018-07-21T14:30:43.975Z,5.63
2018-07-21T14:33:14.691Z,5.92
2018-07-21T14:35:45.560Z,5.90
2018-07-21T14:38:16.719Z,6.47
2018-07-21T14:40:47.569Z,6.00
2018-07-21T14:43:18.733Z,5.50
2018-07-21T14:45:49.542Z,5.40
2018-07-21T14:48:20.408Z,5.58
2018-07-21T14:50:51.391Z,5.22
2018-07-21T14:53:22.371Z,5.20
2018-07-21T14:55:53.364Z,5.30
2018-07-21T14:58:24.763Z,5.42
2018-07-21T15:00:55.571Z,5.10
2018-07-21T15:03:26.577Z,5.05
2018-07-21T15:05:57.360Z,5.10
2018-07-21T15:08:28.714Z,5.12
2018-07-21T15:10:59.673Z,5.40
2018-07-21T15:13:30.569Z,4.97
2018-07-21T15:16:01.442Z,6.25
2018-07-21T15:18:32.886Z,5.10
2018-07-21T15:21:06.689Z,5.23
2018-07-21T15:23:36.661Z,5.53
2018-07-21T15:26:06.666Z,4.85
2018-07-21T15:28:36.513Z,4.73
2018-07-21T15:31:07.383Z,5.08
2018-07-21T15:33:38.312Z,5.37
2018-07-21T15:36:09.988Z,5.56
2018-07-21T15:38:40.705Z,5.33
2018-07-21T15:41:11.497Z,5.05
2018-07-21T15:43:42.433Z,5.05
2018-07-21T15:46:13.372Z,5.28
2018-07-21T15:48:44.794Z,5.44
2018-07-21T15:51:15.634Z,5.83
2018-07-21T15:53:46.463Z,5.80
2018-07-21T15:56:17.349Z,5.45
2018-07-21T15:58:48.776Z,5.42
2018-07-21T16:01:19.671Z,5.35
2018-07-21T16:03:51.512Z,5.28
2018-07-21T16:06:21.344Z,5.15
2018-07-21T16:08:52.808Z,5.22
2018-07-21T16:11:23.590Z,5.37
2018-07-21T16:13:54.447Z,4.72
2018-07-21T16:16:25.518Z,4.87
2018-07-21T16:18:56.792Z,4.65
2018-07-21T16:21:28.075Z,4.65
2018-07-21T16:23:58.759Z,4.92
2018-07-21T16:26:29.524Z,4.50
2018-07-21T16:29:00.411Z,5.12
2018-07-21T16:31:31.906Z,5.03
2018-07-21T16:34:02.620Z,4.33
2018-07-21T16:36:33.445Z,5.22
2018-07-21T16:39:05.385Z,4.80
2018-07-21T16:41:35.321Z,5.10
2018-07-21T16:44:07.388Z,5.32
2018-07-21T16:46:37.386Z,5.50
2018-07-21T16:49:08.381Z,4.90
2018-07-21T16:51:39.385Z,5.60
2018-07-21T16:54:10.391Z,5.45
2018-07-21T16:56:42.469Z,5.20
2018-07-21T16:59:12.371Z,5.50
2018-07-21T17:01:44.347Z,5.70
2018-07-21T17:04:14.249Z,6.05
2018-07-21T17:06:45.595Z,6.10
2018-07-21T17:09:16.402Z,5.42
2018-07-21T17:11:47.295Z,5.67
2018-07-21T17:14:18.628Z,5.48
2018-07-21T17:16:49.445Z,5.78
2018-07-21T17:19:20.380Z,5.67
2018-07-21T17:21:51.688Z,5.74
2018-07-21T17:24:22.566Z,5.95
2018-07-21T17:26:53.712Z,5.90
2018-07-21T17:29:24.547Z,5.95
2018-07-21T17:31:55.163Z,6.34
2018-07-21T17:34:25.724Z,6.28
2018-07-21T17:36:56.942Z,5.92
2018-07-21T17:39:27.626Z,6.40
2018-07-21T17:41:58.452Z,6.12
2018-07-21T17:44:29.373Z,6.22
2018-07-21T17:47:00.747Z,6.54
2018-07-21T17:49:31.598Z,5.85
2018-07-21T17:52:02.397Z,6.12
2018-07-21T17:54:33.377Z,5.90
2018-07-21T17:57:04.842Z,6.54
2018-07-21T17:59:35.565Z,6.50
2018-07-21T18:02:06.526Z,6.50
2018-07-21T18:04:37.553Z,6.10
2018-07-21T18:07:08.388Z,6.05
2018-07-21T18:09:39.693Z,6.36
2018-07-21T18:12:10.473Z,6.50
2018-07-21T18:14:41.414Z,6.00
2018-07-21T18:17:12.389Z,6.20
2018-07-21T18:19:43.442Z,6.40
2018-07-21T18:22:14.338Z,6.28
2018-07-21T18:24:45.670Z,5.86
2018-07-21T18:27:17.612Z,7.30
2018-07-21T18:29:47.408Z,6.47
2018-07-21T18:32:18.669Z,6.52
2018-07-21T18:34:48.543Z,6.67
2018-07-21T18:37:19.355Z,7.22
2018-07-21T18:39:50.853Z,7.04
2018-07-21T18:42:21.552Z,6.20
2018-07-21T18:44:52.491Z,6.53
2018-07-21T18:47:23.949Z,7.85
2018-07-21T18:49:54.656Z,7.87
2018-07-21T18:52:25.397Z,7.37
2018-07-21T18:54:56.416Z,10.63
2018-07-21T18:57:28.282Z,8.45
2018-07-21T18:59:58.702Z,8.58
2018-07-21T19:02:28.509Z,8.67
2018-07-21T19:04:59.427Z,9.15
2018-07-21T19:07:30.331Z,8.13
2018-07-21T19:10:01.690Z,14.72
2018-07-21T19:12:37.569Z,15.08
2018-07-21T19:15:07.518Z,8.93
2018-07-21T19:17:37.329Z,9.10
2018-07-21T19:20:12.259Z,9.80
2018-07-21T19:22:42.354Z,8.70
2018-07-21T19:25:17.232Z,9.73
2018-07-21T19:27:47.080Z,13.47
2018-07-21T19:30:17.055Z,10.60
2018-07-21T19:32:52.283Z,9.63
2018-07-21T19:35:22.122Z,11.70
2018-07-21T19:37:52.493Z,11.50
2018-07-21T19:40:22.359Z,12.10
2018-07-21T19:42:52.254Z,12.77
2018-07-21T19:45:22.183Z,14.60
2018-07-21T19:47:52.152Z,15.77
2018-07-21T19:50:22.107Z,12.43
2018-07-21T19:52:52.024Z,12.25
2018-07-21T19:55:22.109Z,13.23
2018-07-21T19:57:51.891Z,12.70
2018-07-21T20:00:28.418Z,12.07
2018-07-21T20:02:58.214Z,13.20
2018-07-21T20:05:28.125Z,13.33
2018-07-21T20:07:58.077Z,13.03
2018-07-21T20:10:28.055Z,12.40
2018-07-21T20:12:57.937Z,13.30
2018-07-21T20:15:27.751Z,13.90
2018-07-21T20:17:57.645Z,12.90
2018-07-21T20:20:28.439Z,12.65
2018-07-21T20:22:59.421Z,12.35
2018-07-21T20:25:30.690Z,12.50
2018-07-21T20:28:01.562Z,12.80
2018-07-21T20:30:32.436Z,14.38
2018-07-21T20:33:03.493Z,12.55
2018-07-21T20:35:34.391Z,14.43
2018-07-21T20:38:05.843Z,13.42
2018-07-21T20:40:36.710Z,13.68
2018-07-21T20:43:07.728Z,14.73
2018-07-21T20:45:38.642Z,13.75
2018-07-21T20:48:09.617Z,13.98
2018-07-21T20:50:40.474Z,15.00
2018-07-21T20:53:11.824Z,16.84
2018-07-21T20:55:42.687Z,16.62
2018-07-21T20:58:13.566Z,16.80
2018-07-21T21:00:44.444Z,15.60
2018-07-21T21:03:15.529Z,15.88
2018-07-21T21:05:46.567Z,15.65
2018-07-21T21:08:17.783Z,15.48
2018-07-21T21:10:47.761Z,15.77
2018-07-21T21:13:18.740Z,15.50
2018-07-21T21:15:49.739Z,16.27
2018-07-21T21:18:20.828Z,15.45
2018-07-21T21:20:51.782Z,13.95
2018-07-21T21:23:22.696Z,14.83
2018-07-21T21:25:54.262Z,16.12
2018-07-21T21:28:24.722Z,14.58
2018-07-21T21:30:55.823Z,14.00
2018-07-21T21:33:26.581Z,15.13
2018-07-21T21:35:58.659Z,15.75
2018-07-21T21:38:28.787Z,13.27
2018-07-21T21:40:59.646Z,12.37
2018-07-21T21:43:30.514Z,14.07
2018-07-21T21:46:01.447Z,14.03
2018-07-21T21:48:32.924Z,14.24
2018-07-21T21:51:03.649Z,15.08
2018-07-21T21:53:34.557Z,14.45
2018-07-21T21:56:06.070Z,13.98
2018-07-21T21:58:36.637Z,13.62
2018-07-21T22:01:10.407Z,13.30
2018-07-21T22:03:40.212Z,12.13
2018-07-21T22:06:10.142Z,13.23
2018-07-21T22:08:40.854Z,11.78
2018-07-21T22:11:11.773Z,11.97
2018-07-21T22:13:42.663Z,12.55
2018-07-21T22:16:13.498Z,12.15
2018-07-21T22:18:44.523Z,12.45
2018-07-21T22:21:15.813Z,11.93
2018-07-21T22:23:46.678Z,12.53
2018-07-21T22:26:17.569Z,12.28
2018-07-21T22:28:48.898Z,12.78
2018-07-21T22:31:20.234Z,12.28
2018-07-21T22:33:50.765Z,12.38
2018-07-21T22:36:21.681Z,12.53
2018-07-21T22:38:52.523Z,12.95
2018-07-21T22:41:23.424Z,12.95
2018-07-21T22:43:54.326Z,11.53
2018-07-21T22:46:25.770Z,12.20
2018-07-21T22:48:56.649Z,12.45
2018-07-21T22:51:27.536Z,11.88
2018-07-21T22:53:58.379Z,12.20
2018-07-21T22:56:29.753Z,12.36
2018-07-21T22:59:00.610Z,12.00
2018-07-21T23:01:31.497Z,11.97
2018-07-21T23:04:02.754Z,12.60
2018-07-21T23:06:33.656Z,11.53
2018-07-21T23:09:04.863Z,11.33
2018-07-21T23:11:35.610Z,11.38
2018-07-21T23:14:06.590Z,12.05
2018-07-21T23:16:37.535Z,12.25
2018-07-21T23:19:08.837Z,11.68
2018-07-21T23:21:39.683Z,12.82
2018-07-21T23:24:10.554Z,12.90
2018-07-21T23:26:41.765Z,13.08
2018-07-21T23:29:12.586Z,12.75
2018-07-21T23:31:44.115Z,12.68
2018-07-21T23:34:15.058Z,12.28
2018-07-21T23:36:45.678Z,12.68
2018-07-21T23:39:16.543Z,12.28
2018-07-21T23:41:47.463Z,11.80
2018-07-21T23:44:19.223Z,11.98
2018-07-21T23:46:49.665Z,13.06
2018-07-21T23:49:20.539Z,12.50
2018-07-21T23:51:51.422Z,12.05
2018-07-21T23:54:22.430Z,13.20
2018-07-21T23:56:53.380Z,12.90
2018-07-21T23:59:24.868Z,12.94
